createdAt,value
2023-02-11T00:00:09.994Z,-0.68
2023-02-11T00:02:40.391Z,-0.17
2023-02-11T00:05:21.991Z,-0.01
2023-02-11T00:08:21.032Z,0.09
2023-02-11T00:11:19.218Z,0.20
2023-02-11T00:14:14.540Z,0.30
2023-02-11T00:16:44.982Z,0.37
2023-02-11T00:19:12.204Z,0.44
2023-02-11T00:21:49.779Z,0.50
2023-02-11T00:24:19.817Z,0.54
2023-02-11T00:27:10.414Z,0.60
2023-02-11T00:30:42.295Z,0.66
2023-02-11T00:33:16.279Z,0.70
2023-02-11T00:36:18.305Z,0.71
2023-02-11T00:38:54.468Z,0.74
2023-02-11T00:41:48.386Z,0.76
2023-02-11T00:44:22.142Z,0.76
2023-02-11T00:47:29.069Z,0.77
2023-02-11T00:50:05.834Z,0.79
2023-02-11T00:52:48.852Z,0.79
2023-02-11T00:55:34.807Z,0.78
2023-02-11T00:58:23.048Z,0.78
2023-02-11T01:01:16.130Z,0.78
2023-02-11T01:04:06.430Z,0.78
2023-02-11T01:07:04.218Z,0.79
2023-02-11T01:09:31.765Z,0.78
2023-02-11T01:12:14.408Z,0.79
2023-02-11T01:14:44.200Z,0.81
2023-02-11T01:17:18.734Z,0.81
2023-02-11T01:20:07.136Z,0.81
2023-02-11T01:22:39.633Z,0.82
2023-02-11T01:25:59.888Z,0.83
2023-02-11T01:28:55.366Z,0.82
2023-02-11T01:31:22.712Z,0.81
2023-02-11T01:34:10.701Z,0.82
2023-02-11T01:36:38.878Z,0.83
2023-02-11T01:39:15.143Z,0.84
2023-02-11T01:42:29.016Z,0.83
2023-02-11T01:46:15.560Z,0.83
2023-02-11T01:49:19.889Z,0.85
2023-02-11T01:53:15.308Z,0.84
2023-02-11T01:57:05.113Z,0.83
2023-02-11T02:01:11.389Z,0.83
2023-02-11T02:04:17.348Z,0.80
2023-02-11T02:07:06.765Z,0.81
2023-02-11T02:10:10.021Z,0.80
2023-02-11T02:12:49.185Z,0.79
2023-02-11T02:15:53.489Z,0.79
2023-02-11T02:19:28.057Z,0.81
2023-02-11T02:22:45.497Z,0.82
2023-02-11T02:26:08.653Z,0.83
2023-02-11T02:29:28.245Z,0.84
2023-02-11T02:33:05.746Z,0.82
2023-02-11T02:36:35.533Z,0.82
2023-02-11T02:39:38.959Z,0.78
2023-02-11T02:42:43.260Z,0.78
2023-02-11T02:45:28.033Z,0.78
2023-02-11T02:48:06.667Z,0.80
2023-02-11T02:50:36.876Z,0.79
2023-02-11T02:53:27.538Z,0.77
2023-02-11T02:56:38.556Z,0.77
2023-02-11T03:00:04.110Z,0.73
2023-02-11T03:03:38.929Z,0.69
2023-02-11T03:07:22.357Z,0.64
2023-02-11T03:10:34.091Z,0.64
2023-02-11T03:13:17.679Z,0.62
2023-02-11T03:16:42.138Z,0.60
2023-02-11T03:19:37.575Z,0.61
2023-02-11T03:22:41.490Z,0.55
2023-02-11T03:25:14.397Z,0.54
2023-02-11T03:28:34.891Z,0.54
2023-02-11T03:31:31.052Z,0.54
2023-02-11T03:34:38.583Z,0.52
2023-02-11T03:38:06.573Z,0.51
2023-02-11T03:40:52.091Z,0.49
2023-02-11T03:43:25.201Z,0.47
2023-02-11T03:45:57.611Z,0.48
2023-02-11T03:49:02.194Z,0.46
2023-02-11T03:51:32.899Z,0.45
2023-02-11T03:54:15.293Z,0.46
2023-02-11T03:57:01.910Z,0.45
2023-02-11T04:00:05.741Z,0.41
2023-02-11T04:03:31.613Z,0.42
2023-02-11T04:06:44.467Z,0.40
2023-02-11T04:09:26.195Z,0.41
2023-02-11T04:11:57.097Z,0.39
2023-02-11T04:14:38.102Z,0.41
2023-02-11T04:17:16.283Z,0.43
2023-02-11T04:19:59.236Z,0.45
2023-02-11T04:22:38.033Z,0.44
2023-02-11T04:25:31.154Z,0.40
2023-02-11T04:28:37.549Z,0.39
2023-02-11T04:31:58.382Z,0.41
2023-02-11T04:35:10.334Z,0.41
2023-02-11T04:38:07.586Z,0.39
2023-02-11T04:41:04.958Z,0.41
2023-02-11T04:44:07.227Z,0.37
2023-02-11T04:47:00.919Z,0.32
2023-02-11T04:49:57.084Z,0.33
2023-02-11T04:52:27.777Z,0.30
2023-02-11T04:55:43.023Z,0.30
2023-02-11T04:58:36.964Z,0.30
2023-02-11T05:01:53.417Z,0.28
2023-02-11T05:04:27.352Z,0.28
2023-02-11T05:07:35.439Z,0.25
2023-02-11T05:10:31.241Z,0.24
2023-02-11T05:13:12.626Z,0.23
2023-02-11T05:16:11.233Z,0.23
2023-02-11T05:19:11.391Z,0.19
2023-02-11T05:21:53.136Z,0.18
2023-02-11T05:24:27.746Z,0.19
2023-02-11T05:27:25.947Z,0.19
2023-02-11T05:30:18.468Z,0.19
2023-02-11T05:33:10.706Z,0.19
2023-02-11T05:35:49.360Z,0.19
2023-02-11T05:38:30.925Z,0.19
2023-02-11T05:40:58.619Z,0.21
2023-02-11T05:43:51.115Z,0.19
2023-02-11T05:46:24.767Z,0.17
2023-02-11T05:49:15.481Z,0.19
2023-02-11T05:51:42.401Z,0.15
2023-02-11T05:54:13.159Z,0.18
2023-02-11T05:56:46.168Z,0.19
2023-02-11T05:59:14.564Z,0.20
2023-02-11T06:01:47.923Z,0.23
2023-02-11T06:04:21.045Z,0.26
2023-02-11T06:07:16.897Z,0.26
2023-02-11T06:09:45.071Z,0.27
2023-02-11T06:12:24.680Z,0.29
2023-02-11T06:15:15.313Z,0.32
2023-02-11T06:17:48.345Z,0.30
2023-02-11T06:20:22.020Z,0.27
2023-02-11T06:22:52.193Z,0.28
2023-02-11T06:25:32.897Z,0.30
2023-02-11T06:28:10.473Z,0.30
2023-02-11T06:30:58.769Z,0.27
2023-02-11T06:33:56.637Z,0.30
2023-02-11T06:37:00.559Z,0.33
2023-02-11T06:39:30.878Z,0.36
2023-02-11T06:41:58.629Z,0.36
2023-02-11T06:44:29.413Z,0.35
2023-02-11T06:47:04.433Z,0.36
2023-02-11T06:49:46.647Z,0.38
2023-02-11T06:52:22.548Z,0.43
2023-02-11T06:55:01.022Z,0.52
2023-02-11T06:58:12.545Z,0.60
2023-02-11T07:01:07.318Z,0.74
2023-02-11T07:04:09.383Z,0.82
2023-02-11T07:06:46.784Z,0.96
2023-02-11T07:09:23.422Z,1.08
2023-02-11T07:12:33.681Z,1.19
2023-02-11T07:15:37.972Z,1.28
2023-02-11T07:18:39.376Z,1.34
2023-02-11T07:21:57.420Z,1.31
2023-02-11T07:24:53.935Z,1.28
2023-02-11T07:27:40.055Z,1.29
2023-02-11T07:30:18.896Z,1.33
2023-02-11T07:32:46.299Z,1.41
2023-02-11T07:35:28.457Z,1.45
2023-02-11T07:37:58.723Z,1.52
2023-02-11T07:40:32.487Z,1.63
2023-02-11T07:43:01.328Z,1.72
2023-02-11T07:45:51.108Z,1.61
2023-02-11T07:48:30.279Z,1.66
2023-02-11T07:51:10.179Z,1.65
2023-02-11T07:53:40.604Z,1.67
2023-02-11T07:56:29.811Z,1.71
2023-02-11T07:59:01.256Z,1.79
2023-02-11T08:01:28.978Z,1.94
2023-02-11T08:04:02.678Z,2.25
2023-02-11T08:06:46.032Z,2.67
2023-02-11T08:09:20.161Z,3.15
2023-02-11T08:11:55.851Z,3.73
2023-02-11T08:14:33.921Z,4.38
2023-02-11T08:17:09.895Z,4.90
2023-02-11T08:19:37.174Z,5.21
2023-02-11T08:22:13.692Z,5.64
2023-02-11T08:24:41.922Z,5.93
2023-02-11T08:27:21.498Z,6.35
2023-02-11T08:29:51.359Z,6.80
2023-02-11T08:32:25.424Z,7.22
2023-02-11T08:34:53.110Z,7.69
2023-02-11T08:37:22.978Z,7.62
2023-02-11T08:39:53.469Z,7.31
2023-02-11T08:42:23.146Z,6.88
2023-02-11T08:44:53.343Z,6.59
2023-02-11T08:47:23.338Z,6.50
2023-02-11T08:49:50.207Z,6.40
2023-02-11T08:52:28.341Z,6.34
2023-02-11T08:55:01.816Z,6.15
2023-02-11T08:57:34.900Z,5.86
2023-02-11T09:00:02.760Z,5.66
2023-02-11T09:02:37.640Z,5.51
2023-02-11T09:05:05.059Z,5.22
2023-02-11T09:07:36.751Z,4.97
2023-02-11T09:10:07.281Z,4.88
2023-02-11T09:12:42.342Z,4.81
2023-02-11T09:15:09.803Z,4.78
2023-02-11T09:17:39.401Z,4.69
2023-02-11T09:20:13.007Z,4.69
2023-02-11T09:22:41.237Z,4.78
2023-02-11T09:25:14.602Z,4.85
2023-02-11T09:27:47.608Z,4.89
2023-02-11T09:30:14.895Z,4.93
2023-02-11T09:32:54.653Z,4.95
2023-02-11T09:35:24.156Z,4.92
2023-02-11T09:37:51.880Z,4.91
2023-02-11T09:40:20.133Z,4.94
2023-02-11T09:43:09.055Z,5.05
2023-02-11T09:45:53.034Z,4.89
2023-02-11T09:48:29.277Z,4.89
2023-02-11T09:51:01.900Z,4.85
2023-02-11T09:53:35.922Z,4.86
2023-02-11T09:56:16.219Z,4.98
2023-02-11T09:58:54.402Z,5.14
2023-02-11T10:01:45.274Z,5.31
2023-02-11T10:04:22.318Z,5.59
2023-02-11T10:07:24.714Z,5.99
2023-02-11T10:10:10.710Z,6.40
2023-02-11T10:12:49.522Z,6.40
2023-02-11T10:16:25.979Z,6.31
2023-02-11T10:19:35.731Z,6.28
2023-02-11T10:22:13.229Z,6.44
2023-02-11T10:24:41.735Z,6.62
2023-02-11T10:27:18.069Z,6.58
2023-02-11T10:30:07.232Z,6.48
2023-02-11T10:33:20.397Z,6.30
2023-02-11T10:35:52.005Z,6.34
2023-02-11T10:38:36.566Z,6.66
2023-02-11T10:41:12.206Z,7.24
2023-02-11T10:43:39.456Z,7.92
2023-02-11T10:46:26.818Z,8.60
2023-02-11T10:48:59.394Z,8.96
2023-02-11T10:51:33.676Z,9.59
2023-02-11T10:54:24.543Z,10.48
2023-02-11T10:57:22.399Z,10.94
2023-02-11T10:59:59.872Z,11.32
2023-02-11T11:02:35.798Z,11.60
2023-02-11T11:05:16.340Z,12.04
2023-02-11T11:08:15.203Z,12.54
2023-02-11T11:10:50.370Z,12.86
2023-02-11T11:13:58.167Z,13.08
2023-02-11T11:16:43.052Z,13.48
2023-02-11T11:19:21.955Z,13.71
2023-02-11T11:22:34.062Z,13.80
2023-02-11T11:25:01.684Z,14.18
2023-02-11T11:27:31.458Z,14.30
2023-02-11T11:30:14.338Z,13.94
2023-02-11T11:32:57.351Z,13.78
2023-02-11T11:35:33.101Z,14.03
2023-02-11T11:38:24.593Z,14.15
2023-02-11T11:41:21.619Z,14.37
2023-02-11T11:44:24.285Z,14.21
2023-02-11T11:47:05.006Z,13.81
2023-02-11T11:49:42.100Z,13.04
2023-02-11T11:52:38.332Z,12.86
2023-02-11T11:55:54.286Z,12.87
2023-02-11T11:58:22.497Z,12.41
2023-02-11T12:01:19.399Z,12.14
2023-02-11T12:04:32.895Z,11.55
2023-02-11T12:07:25.444Z,11.37
2023-02-11T12:09:59.440Z,11.13
2023-02-11T12:12:44.712Z,10.98
2023-02-11T12:15:50.821Z,10.70
2023-02-11T12:18:33.521Z,10.16
2023-02-11T12:21:14.500Z,9.62
2023-02-11T12:24:09.620Z,9.10
2023-02-11T12:27:34.244Z,8.74
2023-02-11T12:30:15.532Z,8.44
2023-02-11T12:33:08.680Z,8.22
2023-02-11T12:36:02.480Z,8.01
2023-02-11T12:39:06.548Z,8.36
2023-02-11T12:42:05.632Z,8.61
2023-02-11T12:45:12.759Z,8.48
2023-02-11T12:48:22.956Z,8.40
2023-02-11T12:51:00.640Z,8.16
2023-02-11T12:53:53.950Z,7.94
2023-02-11T12:56:27.024Z,8.19
2023-02-11T12:59:13.107Z,8.41
2023-02-11T13:01:44.183Z,8.44
2023-02-11T13:04:58.992Z,8.65
2023-02-11T13:07:37.115Z,8.84
2023-02-11T13:10:17.078Z,8.98
2023-02-11T13:13:08.504Z,9.22
2023-02-11T13:15:38.295Z,9.29
2023-02-11T13:18:39.059Z,9.40
2023-02-11T13:21:25.773Z,9.63
2023-02-11T13:24:48.112Z,9.56
2023-02-11T13:27:58.854Z,9.26
2023-02-11T13:30:40.671Z,9.02
2023-02-11T13:33:17.707Z,8.79
2023-02-11T13:36:19.787Z,8.48
2023-02-11T13:38:58.312Z,8.12
2023-02-11T13:41:42.177Z,8.02
2023-02-11T13:44:22.444Z,7.94
2023-02-11T13:46:58.246Z,7.89
2023-02-11T13:49:40.683Z,7.75
2023-02-11T13:52:21.655Z,7.50
2023-02-11T13:54:52.978Z,7.26
2023-02-11T13:57:44.714Z,7.16
2023-02-11T14:00:47.194Z,7.03
2023-02-11T14:03:32.524Z,6.60
2023-02-11T14:06:27.644Z,6.14
2023-02-11T14:09:10.899Z,5.98
2023-02-11T14:11:45.216Z,5.77
2023-02-11T14:14:28.895Z,5.57
2023-02-11T14:16:59.207Z,5.39
2023-02-11T14:19:40.322Z,5.27
2023-02-11T14:22:10.496Z,5.15
2023-02-11T14:24:47.551Z,5.06
2023-02-11T14:27:21.450Z,4.97
2023-02-11T14:29:54.043Z,4.87
2023-02-11T14:33:07.210Z,4.74
2023-02-11T14:35:45.782Z,4.64
2023-02-11T14:38:35.163Z,4.54
2023-02-11T14:41:11.114Z,4.44
2023-02-11T14:43:41.533Z,4.36
2023-02-11T16:06:40.617Z,1.81
2023-02-11T16:09:34.018Z,2.23
2023-02-11T16:12:27.285Z,2.36
2023-02-11T16:14:56.828Z,2.43
2023-02-11T16:17:30.648Z,2.47
2023-02-11T16:19:58.032Z,2.55
2023-02-11T16:22:38.431Z,2.61
2023-02-11T16:25:25.964Z,2.69
2023-02-11T16:28:26.193Z,2.73
2023-02-11T16:30:56.818Z,2.77
2023-02-11T16:33:30.193Z,2.80
2023-02-11T16:36:27.301Z,2.84
2023-02-11T16:38:57.012Z,2.84
2023-02-11T16:41:24.123Z,2.84
2023-02-11T16:43:51.613Z,2.84
2023-02-11T16:46:26.747Z,2.86
2023-02-11T16:49:39.099Z,2.87
2023-02-11T16:52:08.096Z,2.84
2023-02-11T16:54:35.921Z,2.85
2023-02-11T16:57:20.784Z,2.80
2023-02-11T16:59:51.373Z,2.83
2023-02-11T17:02:30.434Z,2.83
2023-02-11T17:05:04.989Z,2.80
2023-02-11T17:07:37.897Z,2.82
2023-02-11T17:10:17.376Z,2.82
2023-02-11T17:12:48.230Z,2.78
2023-02-11T17:15:18.893Z,2.78
2023-02-11T17:17:51.207Z,2.76
2023-02-11T17:20:24.209Z,2.73
2023-02-11T17:22:54.295Z,2.71
2023-02-11T17:25:27.746Z,2.68
2023-02-11T17:28:23.178Z,2.64
2023-02-11T17:30:50.738Z,2.62
2023-02-11T17:33:53.185Z,2.59
2023-02-11T17:36:23.518Z,2.59
2023-02-11T17:38:55.156Z,2.60
2023-02-11T17:41:24.934Z,2.59
2023-02-11T17:43:57.908Z,2.57
2023-02-11T17:46:35.519Z,2.55
2023-02-11T17:49:03.660Z,2.57
2023-02-11T17:51:35.220Z,2.57
2023-02-11T17:54:19.992Z,2.55
2023-02-11T17:56:50.532Z,2.59
2023-02-11T17:59:29.398Z,2.60
2023-02-11T18:01:56.604Z,2.61
2023-02-11T18:04:27.550Z,2.62
2023-02-11T18:07:05.100Z,2.59
2023-02-11T18:09:47.705Z,2.56
2023-02-11T18:12:25.288Z,2.58
2023-02-11T18:14:58.116Z,2.58
2023-02-11T18:17:28.525Z,2.56
2023-02-11T18:19:56.990Z,2.53
2023-02-11T18:22:24.783Z,2.53
2023-02-11T18:25:05.079Z,2.52
2023-02-11T18:27:37.287Z,2.55
2023-02-11T18:30:05.682Z,2.50
2023-02-11T18:32:38.335Z,2.52
2023-02-11T18:35:14.922Z,2.57
2023-02-11T18:37:59.872Z,2.57
2023-02-11T18:40:29.789Z,2.54
2023-02-11T18:43:00.211Z,2.58
2023-02-11T18:45:31.371Z,2.55
2023-02-11T18:48:01.655Z,2.53
2023-02-11T18:50:31.296Z,3.18
2023-02-11T18:52:58.874Z,3.88
2023-02-11T18:55:36.658Z,4.02
2023-02-11T18:58:04.375Z,3.90
2023-02-11T19:00:35.034Z,3.70
2023-02-11T19:03:08.218Z,3.56
2023-02-11T19:05:49.022Z,3.40
2023-02-11T19:08:17.288Z,3.29
2023-02-11T19:10:49.553Z,3.18
2023-02-11T19:13:16.894Z,3.07
2023-02-11T19:15:48.760Z,3.02
2023-02-11T19:18:16.539Z,3.62
2023-02-11T19:20:46.740Z,4.30
2023-02-11T19:23:14.089Z,4.41
2023-02-11T19:25:46.056Z,4.27
2023-02-11T19:28:13.905Z,4.03
2023-02-11T19:30:41.527Z,3.75
2023-02-11T19:33:25.937Z,3.55
2023-02-11T19:35:55.846Z,3.39
2023-02-11T19:38:23.818Z,3.23
2023-02-11T19:40:58.661Z,3.81
2023-02-11T19:43:29.800Z,4.34
2023-02-11T19:45:59.972Z,4.44
2023-02-11T19:48:30.552Z,4.20
2023-02-11T19:51:07.601Z,4.02
2023-02-11T19:53:38.965Z,3.82
2023-02-11T19:56:10.288Z,3.65
2023-02-11T19:58:38.077Z,3.46
2023-02-11T20:01:19.318Z,3.28
2023-02-11T20:03:59.415Z,3.83
2023-02-11T20:06:33.801Z,4.38
2023-02-11T20:09:07.150Z,4.40
2023-02-11T20:11:34.603Z,4.18
2023-02-11T20:14:07.673Z,3.95
2023-02-11T20:16:49.845Z,3.71
2023-02-11T20:19:24.997Z,3.46
2023-02-11T20:21:56.155Z,3.29
2023-02-11T20:24:24.560Z,3.70
2023-02-11T20:26:57.739Z,4.33
2023-02-11T20:29:31.366Z,4.38
2023-02-11T20:32:04.120Z,4.25
2023-02-11T20:34:32.420Z,3.97
2023-02-11T20:37:04.330Z,3.73
2023-02-11T20:39:37.435Z,3.60
2023-02-11T20:42:04.980Z,3.46
2023-02-11T20:44:43.083Z,3.90
2023-02-11T20:47:13.821Z,4.47
2023-02-11T20:49:41.112Z,4.42
2023-02-11T20:52:08.585Z,4.25
2023-02-11T20:54:36.291Z,4.07
2023-02-11T20:57:08.281Z,3.82
2023-02-11T20:59:36.154Z,3.61
2023-02-11T21:02:24.839Z,3.45
2023-02-11T21:04:58.003Z,4.08
2023-02-11T21:07:29.404Z,4.61
2023-02-11T21:09:57.467Z,4.66
2023-02-11T21:12:24.543Z,4.35
2023-02-11T21:14:52.140Z,3.99
2023-02-11T21:17:38.762Z,3.75
2023-02-11T21:20:07.242Z,3.54
2023-02-11T21:22:34.854Z,3.40
2023-02-11T21:25:06.450Z,3.88
2023-02-11T21:27:37.227Z,4.47
2023-02-11T21:30:11.214Z,4.45
2023-02-11T21:32:39.007Z,4.32
2023-02-11T21:35:09.914Z,4.12
2023-02-11T21:37:58.307Z,3.95
2023-02-11T21:40:29.517Z,3.70
2023-02-11T21:43:08.564Z,4.28
2023-02-11T21:45:48.101Z,4.87
2023-02-11T21:48:15.867Z,4.82
2023-02-11T21:50:58.267Z,4.56
2023-02-11T21:53:25.483Z,4.27
2023-02-11T21:56:14.846Z,3.97
2023-02-11T21:58:47.660Z,3.73
2023-02-11T22:01:43.908Z,4.20
2023-02-11T22:04:17.485Z,4.69
2023-02-11T22:06:45.078Z,4.61
2023-02-11T22:09:14.758Z,4.36
2023-02-11T22:12:09.016Z,4.20
2023-02-11T22:14:38.770Z,3.95
2023-02-11T22:17:08.910Z,3.75
2023-02-11T22:19:44.075Z,4.20
2023-02-11T22:22:18.253Z,4.73
2023-02-11T22:24:56.961Z,4.80
2023-02-11T22:27:31.976Z,4.47
2023-02-11T22:30:05.725Z,4.18
2023-02-11T22:32:38.819Z,3.92
2023-02-11T22:35:09.716Z,3.70
2023-02-11T22:37:38.688Z,4.13
2023-02-11T22:40:10.138Z,4.64
2023-02-11T22:42:40.788Z,4.58
2023-02-11T22:45:17.359Z,4.41
2023-02-11T22:47:50.546Z,4.18
2023-02-11T22:50:25.248Z,3.92
2023-02-11T22:52:53.686Z,4.30
2023-02-11T22:55:29.479Z,4.76
2023-02-11T22:57:57.008Z,4.73
2023-02-11T23:00:24.454Z,4.48
2023-02-11T23:02:59.572Z,4.25
2023-02-11T23:05:27.455Z,4.09
2023-02-11T23:08:44.053Z,3.92
2023-02-11T23:12:32.427Z,4.75
2023-02-11T23:16:40.241Z,4.90
2023-02-11T23:19:53.298Z,4.53
2023-02-11T23:22:25.631Z,4.28
2023-02-11T23:25:14.747Z,4.07
2023-02-11T23:28:18.916Z,3.85
2023-02-11T23:31:20.939Z,4.54
2023-02-11T23:33:55.051Z,4.84
2023-02-11T23:37:00.520Z,4.64
2023-02-11T23:39:46.457Z,4.40
2023-02-11T23:42:24.061Z,4.19
2023-02-11T23:45:11.519Z,3.97
2023-02-11T23:47:51.080Z,4.53
2023-02-11T23:50:18.650Z,4.95
2023-02-11T23:52:49.012Z,4.83
2023-02-11T23:55:39.996Z,4.52
2023-02-11T23:58:10.875Z,4.27
